createdAt,value
2022-11-07T00:00:49.758Z,17.87
2022-11-07T00:03:19.846Z,16.57
2022-11-07T00:05:48.168Z,18.03
2022-11-07T00:08:16.429Z,16.90
2022-11-07T00:10:55.543Z,17.87
2022-11-07T00:13:23.941Z,18.93
2022-11-07T00:16:17.410Z,17.33
2022-11-07T00:18:47.056Z,18.40
2022-11-07T00:21:15.340Z,17.47
2022-11-07T00:23:44.060Z,17.97
2022-11-07T00:26:14.293Z,17.47
2022-11-07T00:28:44.578Z,17.50
2022-11-07T00:31:15.329Z,17.03
2022-11-07T00:33:44.293Z,18.33
2022-11-07T00:36:18.977Z,16.43
2022-11-07T00:39:12.381Z,17.73
2022-11-07T00:41:40.670Z,15.80
2022-11-07T00:44:09.284Z,15.50
2022-11-07T00:46:38.850Z,15.10
2022-11-07T00:49:07.156Z,16.20
2022-11-07T00:51:36.787Z,16.50
2022-11-07T00:54:05.965Z,15.27
2022-11-07T00:56:55.944Z,16.20
2022-11-07T00:59:24.230Z,16.27
2022-11-07T01:01:52.579Z,16.40
2022-11-07T01:04:38.130Z,16.03
2022-11-07T01:07:15.168Z,16.80
2022-11-07T01:09:43.446Z,17.57
2022-11-07T01:12:11.629Z,16.87
2022-11-07T01:14:39.927Z,16.97
2022-11-07T01:17:08.206Z,17.73
2022-11-07T01:19:36.397Z,18.97
2022-11-07T01:22:04.689Z,19.87
2022-11-07T01:24:34.326Z,18.53
2022-11-07T01:27:09.014Z,18.47
2022-11-07T01:29:37.401Z,18.97
2022-11-07T01:32:06.295Z,19.10
2022-11-07T01:34:34.503Z,17.93
2022-11-07T01:37:02.793Z,19.37
2022-11-07T01:39:31.001Z,21.53
2022-11-07T01:42:00.801Z,20.00
2022-11-07T01:44:55.241Z,20.70
2022-11-07T01:47:25.192Z,20.33
2022-11-07T01:49:54.147Z,22.80
2022-11-07T01:52:26.047Z,22.40
2022-11-07T01:55:00.560Z,22.17
2022-11-07T01:57:33.355Z,21.13
2022-11-07T02:00:06.160Z,21.53
2022-11-07T02:02:35.274Z,21.30
2022-11-07T02:05:06.196Z,20.73
2022-11-07T02:07:34.657Z,21.07
2022-11-07T02:10:28.404Z,21.77
2022-11-07T02:13:51.409Z,21.73
2022-11-07T02:16:56.310Z,21.23
2022-11-07T02:19:34.185Z,21.20
2022-11-07T02:22:12.140Z,22.17
2022-11-07T02:24:42.609Z,23.03
2022-11-07T02:27:14.650Z,22.77
2022-11-07T02:29:46.214Z,22.10
2022-11-07T02:32:14.797Z,22.00
2022-11-07T02:34:43.111Z,22.57
2022-11-07T02:37:22.221Z,23.10
2022-11-07T02:40:12.111Z,22.63
2022-11-07T02:42:46.498Z,22.83
2022-11-07T02:45:18.598Z,21.93
2022-11-07T02:47:47.142Z,21.47
2022-11-07T02:50:27.841Z,23.43
2022-11-07T02:52:56.094Z,23.27
2022-11-07T02:55:25.765Z,23.10
2022-11-07T02:57:53.992Z,24.37
2022-11-07T03:00:22.327Z,23.10
2022-11-07T03:02:50.777Z,22.67
2022-11-07T03:05:21.334Z,23.20
2022-11-07T03:07:51.030Z,22.60
2022-11-07T03:10:19.945Z,22.53
2022-11-07T03:13:14.962Z,23.53
2022-11-07T03:15:43.432Z,24.57
2022-11-07T03:18:11.824Z,24.20
2022-11-07T03:20:40.114Z,24.37
2022-11-07T03:23:08.480Z,25.47
2022-11-07T03:25:36.855Z,24.07
2022-11-07T03:28:05.384Z,24.43
2022-11-07T03:30:35.150Z,22.30
2022-11-07T03:33:03.467Z,23.77
2022-11-07T03:35:31.854Z,24.30
2022-11-07T03:38:00.153Z,26.57
2022-11-07T03:40:28.558Z,23.57
2022-11-07T03:42:56.888Z,24.20
2022-11-07T03:45:25.373Z,25.73
2022-11-07T03:47:54.956Z,25.27
2022-11-07T03:50:23.552Z,24.20
2022-11-07T03:52:51.770Z,23.67
2022-11-07T03:55:57.321Z,23.80
2022-11-07T03:58:26.360Z,22.63
2022-11-07T04:01:17.576Z,24.90
2022-11-07T04:03:47.174Z,25.30
2022-11-07T04:06:17.832Z,25.00
2022-11-07T04:08:46.129Z,25.43
2022-11-07T04:11:34.333Z,25.60
2022-11-07T04:14:20.110Z,26.87
2022-11-07T04:17:05.773Z,24.30
2022-11-07T04:19:35.412Z,25.30
2022-11-07T04:22:03.628Z,26.13
2022-11-07T04:24:34.293Z,25.10
2022-11-07T04:27:20.272Z,23.00
2022-11-07T04:29:48.455Z,24.47
2022-11-07T04:32:16.719Z,21.20
2022-11-07T04:34:46.337Z,25.03
2022-11-07T04:37:14.619Z,24.73
2022-11-07T04:39:42.797Z,23.00
2022-11-07T04:42:11.007Z,23.37
2022-11-07T04:44:39.201Z,23.03
2022-11-07T04:47:34.228Z,22.87
2022-11-07T04:50:07.892Z,22.43
2022-11-07T04:52:36.263Z,21.07
2022-11-07T04:55:04.903Z,23.63
2022-11-07T04:57:59.567Z,22.73
2022-11-07T05:00:27.853Z,23.00
2022-11-07T05:02:56.213Z,21.43
2022-11-07T05:05:25.908Z,22.67
2022-11-07T05:07:54.102Z,22.23
2022-11-07T05:10:25.371Z,21.13
2022-11-07T05:12:54.124Z,23.00
2022-11-07T05:15:22.670Z,21.50
2022-11-07T05:17:51.048Z,22.97
2022-11-07T05:20:33.103Z,23.20
2022-11-07T05:23:13.526Z,22.67
2022-11-07T05:25:42.915Z,24.10
2022-11-07T05:28:11.786Z,24.10
2022-11-07T05:30:41.532Z,23.47
2022-11-07T05:33:10.352Z,25.53
2022-11-07T05:35:40.203Z,25.43
2022-11-07T05:38:08.535Z,23.43
2022-11-07T05:40:38.337Z,23.10
2022-11-07T05:43:08.463Z,24.07
2022-11-07T05:45:42.698Z,26.00
2022-11-07T05:48:12.605Z,25.30
2022-11-07T05:50:42.548Z,26.27
2022-11-07T05:53:10.874Z,27.10
2022-11-07T05:55:39.323Z,27.20
2022-11-07T05:58:11.872Z,26.43
2022-11-07T06:00:40.309Z,24.77
2022-11-07T06:03:09.197Z,24.70
2022-11-07T06:05:39.088Z,24.53
2022-11-07T06:08:28.255Z,23.03
2022-11-07T06:10:56.564Z,25.37
2022-11-07T06:13:24.763Z,23.40
2022-11-07T06:15:52.944Z,26.10
2022-11-07T06:18:28.361Z,22.60
2022-11-07T06:20:56.597Z,24.83
2022-11-07T06:23:25.058Z,22.17
2022-11-07T06:25:54.705Z,27.90
2022-11-07T06:28:22.941Z,39.93
2022-11-07T06:30:51.162Z,34.00
2022-11-07T06:33:20.630Z,28.20
2022-11-07T06:35:48.980Z,27.60
2022-11-07T06:38:17.189Z,26.67
2022-11-07T06:40:45.468Z,25.30
2022-11-07T06:43:17.895Z,28.13
2022-11-07T06:45:48.051Z,24.30
2022-11-07T06:48:16.340Z,25.40
2022-11-07T06:50:44.563Z,26.90
2022-11-07T06:53:15.002Z,32.50
2022-11-07T06:55:43.462Z,31.50
2022-11-07T06:58:11.704Z,26.87
2022-11-07T07:00:41.327Z,28.77
2022-11-07T07:03:09.742Z,25.57
2022-11-07T07:05:38.256Z,27.20
2022-11-07T07:08:07.931Z,31.10
2022-11-07T07:10:39.068Z,45.13
2022-11-07T07:13:07.440Z,54.07
2022-11-07T07:15:49.795Z,67.57
2022-11-07T07:18:21.110Z,50.67
2022-11-07T07:21:15.268Z,48.20
2022-11-07T07:23:43.554Z,38.83
2022-11-07T07:26:37.348Z,32.83
2022-11-07T07:29:05.558Z,30.33
2022-11-07T07:31:33.929Z,28.27
2022-11-07T07:34:03.538Z,25.20
2022-11-07T07:36:33.123Z,25.47
2022-11-07T07:39:01.317Z,26.93
2022-11-07T07:41:29.551Z,24.57
2022-11-07T07:43:57.721Z,23.27
2022-11-07T07:46:26.638Z,23.23
2022-11-07T07:48:54.863Z,22.33
2022-11-07T07:51:24.492Z,22.87
2022-11-07T07:53:53.691Z,22.63
2022-11-07T07:56:21.856Z,22.27
2022-11-07T07:59:15.172Z,21.07
2022-11-07T08:01:43.529Z,19.70
2022-11-07T08:04:11.855Z,21.10
2022-11-07T08:06:41.495Z,23.97
2022-11-07T08:09:09.718Z,23.43
2022-11-07T08:11:37.939Z,24.23
2022-11-07T08:14:12.475Z,21.03
2022-11-07T08:16:40.693Z,20.30
2022-11-07T08:19:08.857Z,20.57
2022-11-07T08:21:37.047Z,19.37
2022-11-07T08:24:07.489Z,22.40
2022-11-07T08:26:35.689Z,20.53
2022-11-07T08:29:03.928Z,21.77
2022-11-07T08:31:32.243Z,21.07
2022-11-07T08:34:01.278Z,20.23
2022-11-07T08:36:29.623Z,20.43
2022-11-07T08:38:57.870Z,23.17
2022-11-07T08:41:27.473Z,22.30
2022-11-07T08:43:55.718Z,22.47
2022-11-07T08:46:23.920Z,21.20
2022-11-07T08:48:52.295Z,22.23
2022-11-07T08:51:39.168Z,21.30
2022-11-07T08:54:07.552Z,21.97
2022-11-07T08:56:37.260Z,19.47
2022-11-07T08:59:05.573Z,20.27
2022-11-07T09:01:33.935Z,19.77
2022-11-07T09:04:06.547Z,19.73
2022-11-07T09:06:34.887Z,19.97
2022-11-07T09:09:03.421Z,20.07
2022-11-07T09:11:31.650Z,19.50
2022-11-07T09:14:27.589Z,19.80
2022-11-07T09:16:55.825Z,19.23
2022-11-07T09:19:24.082Z,18.70
2022-11-07T09:21:52.264Z,18.77
2022-11-07T09:24:20.666Z,18.27
2022-11-07T09:26:48.933Z,18.63
2022-11-07T09:29:17.197Z,19.07
2022-11-07T09:31:46.825Z,19.03
2022-11-07T09:34:15.022Z,17.33
2022-11-07T09:36:43.261Z,18.40
2022-11-07T09:39:11.475Z,17.97
2022-11-07T09:41:51.422Z,17.67
2022-11-07T09:44:39.644Z,18.37
2022-11-07T09:47:19.230Z,17.47
2022-11-07T09:49:49.161Z,16.83
2022-11-07T09:52:22.769Z,16.37
2022-11-07T09:54:57.010Z,18.53
2022-11-07T09:57:34.556Z,16.10
2022-11-07T10:00:06.075Z,16.43
2022-11-07T10:02:51.725Z,14.47
2022-11-07T10:05:30.449Z,15.27
2022-11-07T10:08:04.445Z,16.03
2022-11-07T10:10:59.380Z,15.77
2022-11-07T10:14:24.641Z,14.80
2022-11-07T10:17:02.874Z,16.80
2022-11-07T10:19:57.174Z,16.00
2022-11-07T10:22:47.768Z,16.43
2022-11-07T10:25:22.203Z,14.67
2022-11-07T10:27:56.002Z,15.53
2022-11-07T10:30:24.210Z,18.60
2022-11-07T10:32:59.471Z,16.57
2022-11-07T10:35:32.104Z,15.53
2022-11-07T10:38:02.004Z,15.73
2022-11-07T10:40:35.687Z,16.40
2022-11-07T10:43:08.219Z,17.97
2022-11-07T10:45:38.439Z,18.63
2022-11-07T10:48:07.469Z,17.60
2022-11-07T10:50:37.235Z,17.47
2022-11-07T10:53:30.516Z,17.37
2022-11-07T10:55:59.832Z,17.43
2022-11-07T10:58:31.064Z,17.67
2022-11-07T11:01:02.678Z,17.50
2022-11-07T11:03:43.740Z,16.83
2022-11-07T11:06:24.887Z,16.23
2022-11-07T11:08:54.217Z,17.43
2022-11-07T11:11:31.979Z,17.13
2022-11-07T11:14:11.107Z,16.47
2022-11-07T11:16:41.637Z,16.03
2022-11-07T11:19:22.100Z,16.10
2022-11-07T11:21:55.540Z,15.63
2022-11-07T11:24:31.318Z,15.83
2022-11-07T11:27:03.095Z,15.20
2022-11-07T11:30:05.473Z,15.57
2022-11-07T11:32:39.031Z,14.50
2022-11-07T11:35:21.125Z,15.07
2022-11-07T11:37:58.074Z,15.47
2022-11-07T11:40:26.536Z,15.53
2022-11-07T11:43:01.632Z,14.77
2022-11-07T11:45:36.792Z,15.17
2022-11-07T11:48:16.853Z,15.17
2022-11-07T11:50:50.859Z,15.27
2022-11-07T11:53:22.725Z,15.40
2022-11-07T11:55:59.195Z,16.07
2022-11-07T11:58:41.139Z,15.10
2022-11-07T12:01:18.712Z,14.73
2022-11-07T12:03:57.631Z,15.73
2022-11-07T12:06:31.857Z,15.77
2022-11-07T12:09:25.196Z,16.00
2022-11-07T12:12:17.477Z,15.00
2022-11-07T12:15:19.914Z,14.90
2022-11-07T12:17:54.243Z,14.67
2022-11-07T12:20:27.800Z,15.60
2022-11-07T12:23:09.113Z,14.33
2022-11-07T12:25:44.447Z,14.67
2022-11-07T12:28:28.717Z,15.33
2022-11-07T12:31:05.346Z,15.33
2022-11-07T12:33:40.737Z,15.10
2022-11-07T12:36:18.596Z,14.70
2022-11-07T12:39:20.392Z,14.77
2022-11-07T12:41:58.910Z,14.87
2022-11-07T12:44:47.980Z,14.63
2022-11-07T12:47:32.516Z,12.73
2022-11-07T12:50:15.269Z,15.33
2022-11-07T12:53:01.714Z,14.97
2022-11-07T12:56:24.445Z,15.37
2022-11-07T12:58:54.621Z,16.97
2022-11-07T13:01:32.052Z,16.87
2022-11-07T13:04:29.044Z,15.53
2022-11-07T13:07:06.141Z,15.27
2022-11-07T13:09:39.928Z,15.97
2022-11-07T13:12:15.880Z,14.57
2022-11-07T13:14:46.308Z,15.27
2022-11-07T13:17:16.964Z,16.53
2022-11-07T13:19:46.665Z,16.13
2022-11-07T13:22:24.341Z,16.37
2022-11-07T13:24:56.889Z,16.07
2022-11-07T13:27:34.466Z,15.30
2022-11-07T13:30:20.691Z,15.13
2022-11-07T13:32:50.250Z,15.80
2022-11-07T13:35:32.571Z,15.07
2022-11-07T13:38:08.269Z,15.53
2022-11-07T13:40:39.132Z,13.87
2022-11-07T13:43:14.059Z,13.37
2022-11-07T13:45:50.560Z,14.17
2022-11-07T13:48:46.756Z,14.17
2022-11-07T13:51:20.603Z,15.00
2022-11-07T13:53:59.019Z,14.67
2022-11-07T13:56:33.793Z,15.97
2022-11-07T13:59:06.475Z,14.90
2022-11-07T14:02:25.333Z,14.83
2022-11-07T14:05:15.335Z,16.13
2022-11-07T14:07:48.827Z,15.67
2022-11-07T14:10:25.941Z,13.90
2022-11-07T14:13:00.412Z,14.73
2022-11-07T14:15:28.808Z,15.77
2022-11-07T14:17:57.281Z,16.27
2022-11-07T14:20:27.021Z,15.57
2022-11-07T14:23:15.084Z,14.67
2022-11-07T14:25:43.320Z,14.13
2022-11-07T14:28:17.733Z,15.23
2022-11-07T14:30:51.573Z,16.40
2022-11-07T14:33:21.826Z,17.53
2022-11-07T14:35:53.072Z,14.30
2022-11-07T14:38:25.338Z,15.07
2022-11-07T14:40:55.544Z,14.10
2022-11-07T14:43:35.784Z,13.27
2022-11-07T14:46:14.338Z,15.30
2022-11-07T14:48:44.508Z,13.80
2022-11-07T14:51:16.849Z,13.27
2022-11-07T14:53:54.438Z,13.27
2022-11-07T14:56:26.221Z,13.27
2022-11-07T14:58:54.880Z,13.80
2022-11-07T15:01:27.605Z,12.90
2022-11-07T15:03:58.635Z,68.00
2022-11-07T15:06:34.032Z,55.17
2022-11-07T15:09:04.639Z,29.07
2022-11-07T15:11:35.523Z,25.23
2022-11-07T15:14:06.659Z,23.07
2022-11-07T15:16:38.885Z,22.10
2022-11-07T15:19:11.150Z,17.77
2022-11-07T15:21:53.319Z,18.47
2022-11-07T15:24:34.943Z,20.30
2022-11-07T15:27:05.214Z,21.10
2022-11-07T15:29:36.011Z,19.20
2022-11-07T15:32:15.372Z,27.93
2022-11-07T15:37:33.765Z,32.43
2022-11-07T15:40:02.043Z,35.93
2022-11-07T15:42:30.271Z,27.63
2022-11-07T15:44:58.469Z,25.13
2022-11-07T15:47:26.705Z,20.27
2022-11-07T15:49:54.983Z,19.53
2022-11-07T15:52:23.252Z,19.03
2022-11-07T15:54:52.873Z,18.20
2022-11-07T15:57:21.420Z,18.47
2022-11-07T15:59:50.478Z,18.53
2022-11-07T16:02:19.419Z,17.47
2022-11-07T16:04:47.868Z,17.53
2022-11-07T16:07:18.980Z,19.63
2022-11-07T16:09:48.809Z,27.73
2022-11-07T16:12:19.755Z,22.80
2022-11-07T16:14:48.145Z,22.60
2022-11-07T16:17:17.891Z,27.90
2022-11-07T16:19:46.318Z,27.67
2022-11-07T16:22:16.631Z,23.60
2022-11-07T16:24:44.845Z,22.40
2022-11-07T16:27:18.826Z,23.90
2022-11-07T16:29:47.261Z,23.13
2022-11-07T16:32:18.484Z,24.37
2022-11-07T16:34:48.054Z,23.10
2022-11-07T16:37:16.332Z,22.77
2022-11-07T16:39:44.572Z,22.13
2022-11-07T16:42:15.434Z,21.93
2022-11-07T16:44:45.136Z,20.70
2022-11-07T16:47:16.108Z,21.40
2022-11-07T16:49:44.527Z,21.33
2022-11-07T16:52:16.266Z,22.10
2022-11-07T16:54:45.060Z,21.43
2022-11-07T16:57:14.656Z,20.87
2022-11-07T16:59:45.215Z,21.30
2022-11-07T17:02:21.064Z,23.00
2022-11-07T17:05:02.305Z,21.67
2022-11-07T17:07:30.670Z,22.73
2022-11-07T17:09:58.930Z,22.73
2022-11-07T17:12:52.398Z,23.53
2022-11-07T17:15:22.061Z,24.83
2022-11-07T17:17:52.246Z,25.93
2022-11-07T17:20:50.458Z,24.93
2022-11-07T17:23:13.237Z,24.40
2022-11-07T17:25:42.412Z,25.00
2022-11-07T17:28:11.197Z,24.63
2022-11-07T17:30:41.411Z,25.57
2022-11-07T17:33:09.708Z,29.70
2022-11-07T17:35:38.926Z,26.23
2022-11-07T17:38:07.760Z,26.73
2022-11-07T17:40:36.206Z,38.33
2022-11-07T17:43:04.641Z,36.17
2022-11-07T17:45:32.861Z,30.17
2022-11-07T17:48:02.489Z,31.33
2022-11-07T17:50:31.040Z,29.73
2022-11-07T17:52:59.243Z,29.80
2022-11-07T17:55:27.601Z,30.40
2022-11-07T17:57:56.203Z,29.47
2022-11-07T18:00:27.067Z,31.23
2022-11-07T18:02:55.530Z,26.17
2022-11-07T18:05:32.888Z,29.33
2022-11-07T18:08:02.584Z,26.00
2022-11-07T18:10:31.036Z,23.47
2022-11-07T18:12:59.731Z,23.33
2022-11-07T18:15:28.006Z,27.23
2022-11-07T18:17:56.240Z,33.87
2022-11-07T18:20:26.023Z,26.33
2022-11-07T18:22:54.413Z,25.03
2022-11-07T18:25:22.618Z,29.40
2022-11-07T18:27:50.878Z,33.83
2022-11-07T18:30:19.237Z,30.87
2022-11-07T18:32:47.466Z,28.33
2022-11-07T18:35:15.841Z,24.17
2022-11-07T18:37:45.497Z,23.80
2022-11-07T18:40:38.512Z,25.43
2022-11-07T18:43:09.901Z,23.40
2022-11-07T18:45:42.749Z,23.03
2022-11-07T18:48:10.915Z,23.23
2022-11-07T18:50:40.175Z,23.17
2022-11-07T18:53:25.901Z,24.20
2022-11-07T18:55:58.580Z,24.40
2022-11-07T18:58:28.903Z,24.80
2022-11-07T19:01:02.372Z,23.53
2022-11-07T19:03:30.690Z,22.10
2022-11-07T19:06:00.887Z,22.90
2022-11-07T19:08:31.336Z,22.93
2022-11-07T19:11:02.622Z,20.37
2022-11-07T19:13:31.138Z,23.43
2022-11-07T19:16:02.972Z,22.83
2022-11-07T19:18:31.201Z,22.07
2022-11-07T19:20:59.425Z,22.40
2022-11-07T19:23:27.981Z,21.73
2022-11-07T19:25:58.520Z,22.73
2022-11-07T19:28:26.748Z,23.33
2022-11-07T19:30:55.004Z,22.47
2022-11-07T19:33:23.337Z,22.87
2022-11-07T19:36:00.575Z,21.93
2022-11-07T19:38:30.349Z,22.90
2022-11-07T19:41:25.273Z,23.30
2022-11-07T19:43:53.483Z,25.03
2022-11-07T19:46:23.364Z,24.20
2022-11-07T19:48:52.371Z,24.43
2022-11-07T19:51:23.249Z,23.70
2022-11-07T19:53:55.873Z,24.90
2022-11-07T19:56:26.865Z,24.57
2022-11-07T19:58:55.568Z,23.23
2022-11-07T20:01:26.416Z,23.10
2022-11-07T20:03:55.548Z,22.70
2022-11-07T20:06:26.352Z,21.67
2022-11-07T20:08:54.893Z,22.97
2022-11-07T20:11:26.023Z,24.87
2022-11-07T20:13:58.688Z,24.00
2022-11-07T20:16:28.629Z,23.80
2022-11-07T20:18:56.865Z,25.87
2022-11-07T20:21:25.704Z,24.53
2022-11-07T20:23:54.655Z,23.77
2022-11-07T20:26:26.027Z,22.17
2022-11-07T20:28:54.779Z,20.23
2022-11-07T20:31:25.509Z,21.53
2022-11-07T20:33:54.598Z,22.97
2022-11-07T20:36:23.017Z,23.13
2022-11-07T20:38:51.251Z,23.73
2022-11-07T20:41:23.002Z,31.23
2022-11-07T20:43:55.496Z,29.63
2022-11-07T20:46:23.779Z,28.43
2022-11-07T20:48:52.125Z,25.53
2022-11-07T20:51:25.314Z,23.80
2022-11-07T20:53:54.637Z,24.10
2022-11-07T20:56:24.647Z,25.80
2022-11-07T20:58:53.215Z,26.13
2022-11-07T21:01:26.390Z,25.07
2022-11-07T21:03:55.158Z,26.03
2022-11-07T21:06:23.464Z,27.47
2022-11-07T21:08:52.282Z,24.43
2022-11-07T21:11:20.472Z,25.83
2022-11-07T21:13:52.945Z,24.07
2022-11-07T21:16:23.682Z,23.13
2022-11-07T21:18:52.818Z,24.53
2022-11-07T21:21:23.030Z,25.27
2022-11-07T21:23:52.199Z,22.87
2022-11-07T21:26:22.713Z,23.43
2022-11-07T21:28:52.089Z,22.10
2022-11-07T21:31:24.983Z,23.13
2022-11-07T21:33:53.775Z,21.73
2022-11-07T21:36:24.083Z,20.47
2022-11-07T21:38:54.343Z,23.33
2022-11-07T21:41:22.875Z,22.63
2022-11-07T21:43:51.600Z,22.83
2022-11-07T21:46:21.872Z,22.43
2022-11-07T21:48:51.948Z,23.13
2022-11-07T21:51:22.009Z,23.73
2022-11-07T21:53:51.137Z,25.93
2022-11-07T21:56:22.680Z,28.70
2022-11-07T21:58:51.771Z,28.90
2022-11-07T22:01:21.021Z,26.23
2022-11-07T22:04:06.139Z,26.97
2022-11-07T22:06:37.497Z,23.60
2022-11-07T22:09:06.816Z,25.13
2022-11-07T22:11:39.340Z,24.10
2022-11-07T22:14:07.720Z,23.07
2022-11-07T22:16:36.270Z,25.23
2022-11-07T22:19:11.171Z,23.73
2022-11-07T22:21:40.965Z,24.70
2022-11-07T22:24:09.842Z,24.63
2022-11-07T22:26:38.494Z,24.10
2022-11-07T22:29:06.739Z,24.27
2022-11-07T22:31:35.131Z,23.73
2022-11-07T22:34:05.029Z,25.33
2022-11-07T22:36:33.372Z,24.17
2022-11-07T22:39:01.610Z,24.80
2022-11-07T22:41:30.451Z,25.47
2022-11-07T22:43:59.063Z,24.97
2022-11-07T22:46:29.359Z,24.27
2022-11-07T22:48:58.916Z,23.00
2022-11-07T22:51:31.277Z,24.10
2022-11-07T22:54:00.626Z,24.07
2022-11-07T22:56:29.586Z,23.13
2022-11-07T22:58:57.976Z,23.87
2022-11-07T23:01:27.672Z,23.57
2022-11-07T23:03:57.733Z,23.03
2022-11-07T23:06:28.923Z,25.63
2022-11-07T23:08:58.188Z,23.23
2022-11-07T23:11:52.071Z,24.20
2022-11-07T23:14:21.781Z,24.63
2022-11-07T23:16:52.158Z,24.67
2022-11-07T23:19:22.863Z,25.80
2022-11-07T23:21:53.294Z,26.20
2022-11-07T23:24:21.895Z,24.23
2022-11-07T23:26:50.688Z,25.23
2022-11-07T23:29:21.047Z,25.17
2022-11-07T23:31:50.304Z,23.37
2022-11-07T23:34:19.599Z,24.67
2022-11-07T23:36:50.628Z,24.30
2022-11-07T23:39:21.920Z,24.23
2022-11-07T23:41:50.264Z,24.60
2022-11-07T23:44:18.834Z,23.57
2022-11-07T23:47:04.469Z,23.90
2022-11-07T23:49:49.957Z,24.13
2022-11-07T23:52:18.924Z,24.70
2022-11-07T23:55:06.710Z,23.47
2022-11-07T23:57:55.674Z,23.53
